sensor_id;sensor_type;location;lat;lon;timestamp;pressure;altitude;pressure_sealevel;temperature;humidity
7614;BME280;3848;42.016;23.098;2023-01-15T00:00:32;97569.44;;;4.56;100.00
7614;BME280;3848;42.016;23.098;2023-01-15T00:02:59;97572.91;;;4.59;100.00
7614;BME280;3848;42.016;23.098;2023-01-15T00:05:26;97566.78;;;4.50;100.00
7614;BME280;3848;42.016;23.098;2023-01-15T00:07:52;97575.28;;;4.55;100.00
7614;BME280;3848;42.016;23.098;2023-01-15T00:10:19;97565.03;;;4.46;100.00
7614;BME280;3848;42.016;23.098;2023-01-15T00:12:46;97573.59;;;4.54;100.00
7614;BME280;3848;42.016;23.098;2023-01-15T00:15:13;97568.78;;;4.63;100.00
7614;BME280;3848;42.016;23.098;2023-01-15T00:17:41;97576.25;;;4.60;100.00
7614;BME280;3848;42.016;23.098;2023-01-15T00:20:09;97587.16;;;4.59;100.00
7614;BME280;3848;42.016;23.098;2023-01-15T00:22:36;97576.91;;;4.53;100.00
7614;BME280;3848;42.016;23.098;2023-01-15T00:25:03;97568.59;;;4.55;100.00
7614;BME280;3848;42.016;23.098;2023-01-15T00:27:48;97578.78;;;4.60;100.00
7614;BME280;3848;42.016;23.098;2023-01-15T00:30:15;97577.22;;;4.65;100.00
7614;BME280;3848;42.016;23.098;2023-01-15T00:32:43;97586.53;;;4.69;100.00
7614;BME280;3848;42.016;23.098;2023-01-15T00:35:12;97590.84;;;4.75;100.00
7614;BME280;3848;42.016;23.098;2023-01-15T00:37:39;97579.25;;;4.81;100.00
7614;BME280;3848;42.016;23.098;2023-01-15T00:40:06;97585.97;;;4.82;100.00
7614;BME280;3848;42.016;23.098;2023-01-15T00:42:33;97584.41;;;4.87;100.00
7614;BME280;3848;42.016;23.098;2023-01-15T00:45:00;97587.91;;;4.94;100.00
7614;BME280;3848;42.016;23.098;2023-01-15T00:47:34;97581.97;;;4.92;100.00
7614;BME280;3848;42.016;23.098;2023-01-15T00:50:03;97581.16;;;4.93;100.00
7614;BME280;3848;42.016;23.098;2023-01-15T00:52:30;97579.56;;;4.97;100.00
7614;BME280;3848;42.016;23.098;2023-01-15T00:54:57;97580.34;;;4.94;100.00
7614;BME280;3848;42.016;23.098;2023-01-15T00:57:24;97574.47;;;4.94;100.00
7614;BME280;3848;42.016;23.098;2023-01-15T00:59:50;97576.22;;;4.98;100.00
7614;BME280;3848;42.016;23.098;2023-01-15T01:02:18;97566.13;;;4.96;100.00
7614;BME280;3848;42.016;23.098;2023-01-15T01:04:45;97574.63;;;5.01;100.00
7614;BME280;3848;42.016;23.098;2023-01-15T01:07:13;97569.53;;;5.00;100.00
7614;BME280;3848;42.016;23.098;2023-01-15T01:09:40;97566.75;;;4.86;100.00
7614;BME280;3848;42.016;23.098;2023-01-15T01:12:07;97571.78;;;4.86;100.00
7614;BME280;3848;42.016;23.098;2023-01-15T01:14:34;97562.63;;;4.89;100.00
7614;BME280;3848;42.016;23.098;2023-01-15T01:17:01;97556.84;;;4.94;100.00
7614;BME280;3848;42.016;23.098;2023-01-15T01:19:28;97556.84;;;4.94;100.00
7614;BME280;3848;42.016;23.098;2023-01-15T01:21:55;97560.28;;;4.99;100.00
7614;BME280;3848;42.016;23.098;2023-01-15T01:24:23;97544.31;;;4.97;100.00
7614;BME280;3848;42.016;23.098;2023-01-15T01:26:50;97544.31;;;4.97;100.00
7614;BME280;3848;42.016;23.098;2023-01-15T01:29:19;97540.91;;;4.95;100.00
7614;BME280;3848;42.016;23.098;2023-01-15T01:31:47;97546.97;;;5.03;100.00
7614;BME280;3848;42.016;23.098;2023-01-15T01:34:15;97554.53;;;5.03;100.00
7614;BME280;3848;42.016;23.098;2023-01-15T01:36:43;97540.22;;;5.00;100.00
7614;BME280;3848;42.016;23.098;2023-01-15T01:39:12;97544.56;;;5.09;100.00
7614;BME280;3848;42.016;23.098;2023-01-15T01:41:41;97547.91;;;5.08;100.00
7614;BME280;3848;42.016;23.098;2023-01-15T01:47:09;97543.81;;;5.13;100.00
7614;BME280;3848;42.016;23.098;2023-01-15T01:49:40;97556.44;;;5.16;100.00
7614;BME280;3848;42.016;23.098;2023-01-15T01:52:12;97552.31;;;5.19;100.00
7614;BME280;3848;42.016;23.098;2023-01-15T01:54:43;97555.75;;;5.22;100.00
7614;BME280;3848;42.016;23.098;2023-01-15T01:57:14;97551.56;;;5.22;100.00
7614;BME280;3848;42.016;23.098;2023-01-15T01:59:42;97548.13;;;5.20;100.00
7614;BME280;3848;42.016;23.098;2023-01-15T02:02:09;97548.91;;;5.17;100.00
7614;BME280;3848;42.016;23.098;2023-01-15T02:04:36;97544.69;;;5.15;100.00
7614;BME280;3848;42.016;23.098;2023-01-15T02:07:04;97537.63;;;4.99;100.00
7614;BME280;3848;42.016;23.098;2023-01-15T02:09:32;97546.16;;;5.04;100.00
7614;BME280;3848;42.016;23.098;2023-01-15T02:12:11;97540.13;;;4.97;100.00
7614;BME280;3848;42.016;23.098;2023-01-15T02:14:49;97540.78;;;4.88;100.00
7614;BME280;3848;42.016;23.098;2023-01-15T02:17:25;97563.47;;;4.90;100.00
7614;BME280;3848;42.016;23.098;2023-01-15T02:20:05;97554.78;;;4.76;100.00
7614;BME280;3848;42.016;23.098;2023-01-15T02:22:58;97563.28;;;4.81;100.00
7614;BME280;3848;42.016;23.098;2023-01-15T02:25:32;97556.38;;;4.72;100.00
7614;BME280;3848;42.016;23.098;2023-01-15T02:28:11;97546.50;;;4.80;100.00
7614;BME280;3848;42.016;23.098;2023-01-15T02:30:43;97557.53;;;4.86;100.00
7614;BME280;3848;42.016;23.098;2023-01-15T02:33:15;97560.00;;;4.83;100.00
7614;BME280;3848;42.016;23.098;2023-01-15T02:35:44;97554.06;;;4.81;100.00
7614;BME280;3848;42.016;23.098;2023-01-15T02:38:14;97555.59;;;4.75;100.00
7614;BME280;3848;42.016;23.098;2023-01-15T02:40:44;97562.34;;;4.77;100.00
7614;BME280;3848;42.016;23.098;2023-01-15T02:43:14;97553.81;;;4.69;100.00
7614;BME280;3848;42.016;23.098;2023-01-15T02:45:44;97552.09;;;4.68;100.00
7614;BME280;3848;42.016;23.098;2023-01-15T02:48:14;97548.66;;;4.63;100.00
7614;BME280;3848;42.016;23.098;2023-01-15T02:50:47;97557.06;;;4.65;100.00
7614;BME280;3848;42.016;23.098;2023-01-15T02:53:18;97546.94;;;4.62;100.00
7614;BME280;3848;42.016;23.098;2023-01-15T02:55:49;97550.53;;;4.73;100.00
7614;BME280;3848;42.016;23.098;2023-01-15T02:58:22;97543.69;;;4.66;100.00
7614;BME280;3848;42.016;23.098;2023-01-15T03:00:53;97551.38;;;4.74;100.00
7614;BME280;3848;42.016;23.098;2023-01-15T03:03:28;97554.72;;;4.73;100.00
7614;BME280;3848;42.016;23.098;2023-01-15T03:06:00;97551.47;;;4.78;100.00
7614;BME280;3848;42.016;23.098;2023-01-15T03:08:30;97537.28;;;4.80;100.00
7614;BME280;3848;42.016;23.098;2023-01-15T03:11:01;97548.34;;;4.88;100.00
7614;BME280;3848;42.016;23.098;2023-01-15T03:13:42;97538.31;;;4.90;100.00
7614;BME280;3848;42.016;23.098;2023-01-15T03:16:13;97540.81;;;4.90;100.00
7614;BME280;3848;42.016;23.098;2023-01-15T03:19:04;97553.38;;;4.88;100.00
7614;BME280;3848;42.016;23.098;2023-01-15T03:21:40;97550.06;;;4.91;100.00
7614;BME280;3848;42.016;23.098;2023-01-15T03:24:11;97538.44;;;4.98;100.00
7614;BME280;3848;42.016;23.098;2023-01-15T03:26:39;97547.81;;;5.03;100.00
7614;BME280;3848;42.016;23.098;2023-01-15T03:29:08;97539.41;;;5.03;100.00
7614;BME280;3848;42.016;23.098;2023-01-15T03:31:36;97545.38;;;5.08;100.00
7614;BME280;3848;42.016;23.098;2023-01-15T03:34:03;97547.84;;;5.05;100.00
7614;BME280;3848;42.016;23.098;2023-01-15T03:36:31;97552.91;;;5.06;100.00
7614;BME280;3848;42.016;23.098;2023-01-15T03:38:59;97547.09;;;5.10;100.00
7614;BME280;3848;42.016;23.098;2023-01-15T03:41:33;97537.88;;;5.11;100.00
7614;BME280;3848;42.016;23.098;2023-01-15T03:44:10;97551.41;;;5.16;100.00
7614;BME280;3848;42.016;23.098;2023-01-15T03:46:53;97549.78;;;5.18;100.00
7614;BME280;3848;42.016;23.098;2023-01-15T03:49:27;97549.97;;;5.27;100.00
7614;BME280;3848;42.016;23.098;2023-01-15T03:52:00;97553.09;;;5.17;100.00
7614;BME280;3848;42.016;23.098;2023-01-15T03:54:37;97545.31;;;5.03;100.00
7614;BME280;3848;42.016;23.098;2023-01-15T03:57:14;97552.72;;;4.97;100.00
7614;BME280;3848;42.016;23.098;2023-01-15T03:59:49;97559.38;;;4.95;100.00
7614;BME280;3848;42.016;23.098;2023-01-15T04:02:19;97551.72;;;4.89;100.00
7614;BME280;3848;42.016;23.098;2023-01-15T04:04:49;97560.22;;;4.96;100.00
7614;BME280;3848;42.016;23.098;2023-01-15T04:07:16;97542.25;;;4.79;100.00
7614;BME280;3848;42.016;23.098;2023-01-15T04:09:43;97559.25;;;4.89;100.00
7614;BME280;3848;42.016;23.098;2023-01-15T04:12:10;97555.91;;;4.88;100.00
7614;BME280;3848;42.016;23.098;2023-01-15T04:14:37;97557.63;;;4.91;100.00
7614;BME280;3848;42.016;23.098;2023-01-15T04:17:05;97557.66;;;4.93;100.00
7614;BME280;3848;42.016;23.098;2023-01-15T04:19:32;97556.69;;;4.86;100.00
7614;BME280;3848;42.016;23.098;2023-01-15T04:21:59;97557.47;;;4.83;100.00
7614;BME280;3848;42.016;23.098;2023-01-15T04:24:26;97561.66;;;4.83;100.00
7614;BME280;3848;42.016;23.098;2023-01-15T04:26:52;97555.72;;;4.79;100.00
7614;BME280;3848;42.016;23.098;2023-01-15T04:29:19;97560.75;;;4.79;100.00
7614;BME280;3848;42.016;23.098;2023-01-15T04:31:46;97556.50;;;4.78;100.00
7614;BME280;3848;42.016;23.098;2023-01-15T04:34:18;97558.91;;;4.72;100.00
7614;BME280;3848;42.016;23.098;2023-01-15T04:36:45;97550.28;;;4.61;100.00
7614;BME280;3848;42.016;23.098;2023-01-15T04:39:12;97561.16;;;4.60;100.00
7614;BME280;3848;42.016;23.098;2023-01-15T04:41:39;97566.06;;;4.55;100.00
7614;BME280;3848;42.016;23.098;2023-01-15T04:44:23;97572.66;;;4.50;100.00
7614;BME280;3848;42.016;23.098;2023-01-15T04:46:54;97570.13;;;4.49;100.00
7614;BME280;3848;42.016;23.098;2023-01-15T04:49:23;97568.25;;;4.40;100.00
7614;BME280;3848;42.016;23.098;2023-01-15T04:51:50;97558.97;;;4.38;100.00
7614;BME280;3848;42.016;23.098;2023-01-15T04:54:17;97577.59;;;4.46;100.00
7614;BME280;3848;42.016;23.098;2023-01-15T04:56:46;97580.88;;;4.42;100.00
7614;BME280;3848;42.016;23.098;2023-01-15T04:59:15;97585.06;;;4.41;100.00
7614;BME280;3848;42.016;23.098;2023-01-15T05:01:42;97581.50;;;4.33;100.00
7614;BME280;3848;42.016;23.098;2023-01-15T05:04:09;97581.53;;;4.35;100.00
7614;BME280;3848;42.016;23.098;2023-01-15T05:06:37;97585.66;;;4.33;100.00
7614;BME280;3848;42.016;23.098;2023-01-15T05:09:05;97584.91;;;4.37;100.00
7614;BME280;3848;42.016;23.098;2023-01-15T05:11:34;97579.78;;;4.32;100.00
7614;BME280;3848;42.016;23.098;2023-01-15T05:14:01;97590.63;;;4.29;100.00
7614;BME280;3848;42.016;23.098;2023-01-15T05:16:28;97489.41;;;3.67;100.00
7614;BME280;3848;42.016;23.098;2023-01-15T05:18:57;97584.66;;;4.24;100.00
7614;BME280;3848;42.016;23.098;2023-01-15T05:21:26;97580.50;;;4.26;100.00
7614;BME280;3848;42.016;23.098;2023-01-15T05:23:55;97572.19;;;4.29;100.00
7614;BME280;3848;42.016;23.098;2023-01-15T05:26:23;97573.00;;;4.28;100.00
7614;BME280;3848;42.016;23.098;2023-01-15T05:28:52;97567.88;;;4.23;100.00
7614;BME280;3848;42.016;23.098;2023-01-15T05:31:20;97576.34;;;4.28;100.00
7614;BME280;3848;42.016;23.098;2023-01-15T05:33:47;97571.16;;;4.21;100.00
7614;BME280;3848;42.016;23.098;2023-01-15T05:36:16;97571.97;;;4.20;100.00
7614;BME280;3848;42.016;23.098;2023-01-15T05:38:43;97575.97;;;4.13;100.00
7614;BME280;3848;42.016;23.098;2023-01-15T05:41:14;97581.97;;;4.17;100.00
7614;BME280;3848;42.016;23.098;2023-01-15T05:43:59;97578.63;;;4.18;100.00
7614;BME280;3848;42.016;23.098;2023-01-15T05:46:27;97579.47;;;4.18;100.00
7614;BME280;3848;42.016;23.098;2023-01-15T05:48:58;97581.09;;;4.16;100.00
7614;BME280;3848;42.016;23.098;2023-01-15T05:51:26;97574.25;;;4.11;100.00
7614;BME280;3848;42.016;23.098;2023-01-15T05:53:53;97567.34;;;4.02;100.00
7614;BME280;3848;42.016;23.098;2023-01-15T05:56:21;97585.97;;;4.10;100.00
7614;BME280;3848;42.016;23.098;2023-01-15T05:58:48;97584.19;;;4.06;100.00
7614;BME280;3848;42.016;23.098;2023-01-15T06:01:15;97584.94;;;4.02;100.00
7614;BME280;3848;42.016;23.098;2023-01-15T06:03:42;97579.09;;;4.03;100.00
7614;BME280;3848;42.016;23.098;2023-01-15T06:06:11;97579.09;;;4.03;100.00
7614;BME280;3848;42.016;23.098;2023-01-15T06:08:38;97574.75;;;3.96;100.00
7614;BME280;3848;42.016;23.098;2023-01-15T06:11:05;97585.69;;;3.98;100.00
7614;BME280;3848;42.016;23.098;2023-01-15T06:13:34;97578.22;;;4.01;100.00
7614;BME280;3848;42.016;23.098;2023-01-15T06:16:02;97580.69;;;4.00;100.00
7614;BME280;3848;42.016;23.098;2023-01-15T06:18:28;97586.59;;;4.02;100.00
7614;BME280;3848;42.016;23.098;2023-01-15T06:20:55;97584.88;;;3.99;100.00
7614;BME280;3848;42.016;23.098;2023-01-15T06:23:22;97590.75;;;4.00;100.00
7614;BME280;3848;42.016;23.098;2023-01-15T06:25:49;97594.03;;;3.97;100.00
7614;BME280;3848;42.016;23.098;2023-01-15T06:28:15;97595.72;;;3.96;100.00
7614;BME280;3848;42.016;23.098;2023-01-15T06:30:44;97597.25;;;3.93;100.00
7614;BME280;3848;42.016;23.098;2023-01-15T06:33:10;97599.78;;;3.93;100.00
7614;BME280;3848;42.016;23.098;2023-01-15T06:35:37;97602.31;;;3.94;100.00
7614;BME280;3848;42.016;23.098;2023-01-15T06:38:04;97601.66;;;4.00;100.00
7614;BME280;3848;42.016;23.098;2023-01-15T06:40:31;97605.03;;;4.01;100.00
7614;BME280;3848;42.016;23.098;2023-01-15T06:42:58;97593.22;;;3.98;100.00
7614;BME280;3848;42.016;23.098;2023-01-15T06:45:44;97611.09;;;4.09;100.00
7614;BME280;3848;42.016;23.098;2023-01-15T06:48:28;97608.50;;;4.06;100.00
7614;BME280;3848;42.016;23.098;2023-01-15T06:50:55;97612.69;;;4.05;100.00
7614;BME280;3848;42.016;23.098;2023-01-15T06:53:22;97603.53;;;4.09;100.00
7614;BME280;3848;42.016;23.098;2023-01-15T06:55:49;97601.19;;;4.16;100.00
7614;BME280;3848;42.016;23.098;2023-01-15T06:58:15;97603.00;;;4.20;100.00
7614;BME280;3848;42.016;23.098;2023-01-15T07:00:44;97607.31;;;4.26;100.00
7614;BME280;3848;42.016;23.098;2023-01-15T07:03:18;97612.41;;;4.29;100.00
7614;BME280;3848;42.016;23.098;2023-01-15T07:05:44;97606.59;;;4.32;100.00
7614;BME280;3848;42.016;23.098;2023-01-15T07:08:11;97615.19;;;4.38;100.00
7614;BME280;3848;42.016;23.098;2023-01-15T07:10:38;97611.09;;;4.43;100.00
7614;BME280;3848;42.016;23.098;2023-01-15T07:13:05;97608.66;;;4.46;100.00
7614;BME280;3848;42.016;23.098;2023-01-15T07:15:32;97608.84;;;4.55;100.00
7614;BME280;3848;42.016;23.098;2023-01-15T07:18:01;97604.69;;;4.57;100.00
7614;BME280;3848;42.016;23.098;2023-01-15T07:20:29;97615.72;;;4.61;100.00
7614;BME280;3848;42.016;23.098;2023-01-15T07:22:56;97610.69;;;4.61;100.00
7614;BME280;3848;42.016;23.098;2023-01-15T07:25:23;97613.19;;;4.61;100.00
7614;BME280;3848;42.016;23.098;2023-01-15T07:27:50;97619.97;;;4.64;100.00
7614;BME280;3848;42.016;23.098;2023-01-15T07:30:17;97619.25;;;4.69;100.00
7614;BME280;3848;42.016;23.098;2023-01-15T07:32:43;97621.84;;;4.74;100.00
7614;BME280;3848;42.016;23.098;2023-01-15T07:35:11;97621.91;;;4.77;100.00
7614;BME280;3848;42.016;23.098;2023-01-15T07:37:38;97627.91;;;4.80;100.00
7614;BME280;3848;42.016;23.098;2023-01-15T07:40:06;97617.91;;;4.83;100.00
7614;BME280;3848;42.016;23.098;2023-01-15T07:42:33;97612.84;;;4.83;100.00
7614;BME280;3848;42.016;23.098;2023-01-15T07:45:17;97623.84;;;4.87;100.00
7614;BME280;3848;42.016;23.098;2023-01-15T07:48:01;97632.31;;;4.90;100.00
7614;BME280;3848;42.016;23.098;2023-01-15T07:50:46;97620.41;;;4.83;100.00
7614;BME280;3848;42.016;23.098;2023-01-15T07:53:13;97623.91;;;4.90;100.00
7614;BME280;3848;42.016;23.098;2023-01-15T07:55:40;97630.56;;;4.88;100.00
7614;BME280;3848;42.016;23.098;2023-01-15T07:58:06;97628.13;;;4.91;100.00
7614;BME280;3848;42.016;23.098;2023-01-15T08:00:33;97632.41;;;4.95;100.00
7614;BME280;3848;42.016;23.098;2023-01-15T08:03:00;97619.78;;;4.94;100.00
7614;BME280;3848;42.016;23.098;2023-01-15T08:05:28;97621.50;;;4.96;100.00
7614;BME280;3848;42.016;23.098;2023-01-15T08:07:56;97623.44;;;5.06;100.00
7614;BME280;3848;42.016;23.098;2023-01-15T08:10:23;97616.88;;;5.14;100.00
7614;BME280;3848;42.016;23.098;2023-01-15T08:12:50;97621.13;;;5.17;100.00
7614;BME280;3848;42.016;23.098;2023-01-15T08:15:38;97619.38;;;5.14;100.00
7614;BME280;3848;42.016;23.098;2023-01-15T08:18:05;97615.13;;;5.12;100.00
7614;BME280;3848;42.016;23.098;2023-01-15T08:20:33;97612.66;;;5.13;100.00
7614;BME280;3848;42.016;23.098;2023-01-15T08:23:01;97614.66;;;5.28;100.00
7614;BME280;3848;42.016;23.098;2023-01-15T08:25:28;97614.00;;;5.38;100.00
7614;BME280;3848;42.016;23.098;2023-01-15T08:27:59;97608.09;;;5.38;100.00
7614;BME280;3848;42.016;23.098;2023-01-15T08:30:27;97608.22;;;5.42;100.00
7614;BME280;3848;42.016;23.098;2023-01-15T08:32:58;97608.34;;;5.48;100.00
7614;BME280;3848;42.016;23.098;2023-01-15T08:35:26;97605.16;;;5.59;100.00
7614;BME280;3848;42.016;23.098;2023-01-15T08:37:53;97608.72;;;5.68;100.00
7614;BME280;3848;42.016;23.098;2023-01-15T08:40:21;97611.41;;;5.79;100.00
7614;BME280;3848;42.016;23.098;2023-01-15T08:42:48;97599.72;;;5.82;100.00
7614;BME280;3848;42.016;23.098;2023-01-15T08:45:15;97599.22;;;6.00;100.00
7614;BME280;3848;42.016;23.098;2023-01-15T08:47:41;97605.28;;;6.08;100.00
7614;BME280;3848;42.016;23.098;2023-01-15T08:50:09;97606.25;;;6.18;100.00
7614;BME280;3848;42.016;23.098;2023-01-15T08:52:37;97595.28;;;6.15;100.00
7614;BME280;3848;42.016;23.098;2023-01-15T08:55:05;97600.56;;;6.28;100.00
7614;BME280;3848;42.016;23.098;2023-01-15T08:57:34;97602.47;;;6.43;100.00
7614;BME280;3848;42.016;23.098;2023-01-15T09:00:02;97601.91;;;6.61;100.00
7614;BME280;3848;42.016;23.098;2023-01-15T09:02:29;97603.84;;;6.79;100.00
7614;BME280;3848;42.016;23.098;2023-01-15T09:04:56;97597.31;;;6.91;100.00
7614;BME280;3848;42.016;23.098;2023-01-15T09:07:23;97589.00;;;7.01;100.00
7614;BME280;3848;42.016;23.098;2023-01-15T09:09:50;97584.06;;;7.09;100.00
7614;BME280;3848;42.016;23.098;2023-01-15T09:12:16;97585.25;;;7.39;100.00
7614;BME280;3848;42.016;23.098;2023-01-15T09:14:44;97587.16;;;7.55;100.00
7614;BME280;3848;42.016;23.098;2023-01-15T09:17:11;97583.03;;;7.66;100.00
7614;BME280;3848;42.016;23.098;2023-01-15T09:19:38;97567.16;;;7.79;100.00
7614;BME280;3848;42.016;23.098;2023-01-15T09:22:05;97570.72;;;7.97;100.00
7614;BME280;3848;42.016;23.098;2023-01-15T09:24:31;97570.94;;;8.22;100.00
7614;BME280;3848;42.016;23.098;2023-01-15T09:26:58;97565.50;;;8.88;100.00
7614;BME280;3848;42.016;23.098;2023-01-15T09:29:25;97554.88;;;10.15;100.00
7614;BME280;3848;42.016;23.098;2023-01-15T09:31:53;97548.72;;;11.41;100.00
7614;BME280;3848;42.016;23.098;2023-01-15T09:34:20;97534.72;;;12.17;100.00
7614;BME280;3848;42.016;23.098;2023-01-15T09:36:47;97542.75;;;12.68;94.05
7614;BME280;3848;42.016;23.098;2023-01-15T09:39:15;97530.69;;;12.83;89.15
7614;BME280;3848;42.016;23.098;2023-01-15T09:41:58;97525.09;;;12.49;86.47
7614;BME280;3848;42.016;23.098;2023-01-15T09:44:38;97520.94;;;12.39;90.91
7614;BME280;3848;42.016;23.098;2023-01-15T09:47:13;97506.31;;;12.58;87.64
7614;BME280;3848;42.016;23.098;2023-01-15T09:49:59;97521.13;;;13.04;80.44
7614;BME280;3848;42.016;23.098;2023-01-15T09:52:45;97507.53;;;13.02;73.85
7614;BME280;3848;42.016;23.098;2023-01-15T09:55:21;97502.59;;;12.87;78.15
7614;BME280;3848;42.016;23.098;2023-01-15T09:57:53;97493.28;;;12.84;73.20
7614;BME280;3848;42.016;23.098;2023-01-15T10:00:22;97482.28;;;12.80;70.12
7614;BME280;3848;42.016;23.098;2023-01-15T10:02:55;97464.31;;;12.91;70.90
7614;BME280;3848;42.016;23.098;2023-01-15T10:05:27;97468.13;;;13.26;68.65
7614;BME280;3848;42.016;23.098;2023-01-15T10:07:59;97463.63;;;13.45;66.85
7614;BME280;3848;42.016;23.098;2023-01-15T10:10:32;97451.50;;;13.59;68.62
7614;BME280;3848;42.016;23.098;2023-01-15T10:13:07;97448.63;;;13.80;65.92
7614;BME280;3848;42.016;23.098;2023-01-15T10:15:39;97458.47;;;14.04;61.46
7614;BME280;3848;42.016;23.098;2023-01-15T10:18:13;97439.72;;;14.53;63.72
7614;BME280;3848;42.016;23.098;2023-01-15T10:20:54;97440.25;;;15.12;61.03
7614;BME280;3848;42.016;23.098;2023-01-15T10:23:33;97433.31;;;15.56;58.08
7614;BME280;3848;42.016;23.098;2023-01-15T10:26:04;97417.25;;;15.87;57.09
7614;BME280;3848;42.016;23.098;2023-01-15T10:31:43;97407.63;;;16.29;51.88
7614;BME280;3848;42.016;23.098;2023-01-15T10:34:44;97393.81;;;16.64;54.45
7614;BME280;3848;42.016;23.098;2023-01-15T10:37:25;97389.69;;;16.91;53.33
7614;BME280;3848;42.016;23.098;2023-01-15T10:40:10;97387.16;;;17.45;50.63
7614;BME280;3848;42.016;23.098;2023-01-15T10:42:48;97374.66;;;17.06;50.56
7614;BME280;3848;42.016;23.098;2023-01-15T10:45:18;97377.78;;;17.44;49.47
7614;BME280;3848;42.016;23.098;2023-01-15T10:47:50;97334.84;;;17.21;48.65
7614;BME280;3848;42.016;23.098;2023-01-15T10:50:22;97359.09;;;17.13;48.51
7614;BME280;3848;42.016;23.098;2023-01-15T10:52:55;97358.09;;;17.17;50.05
7614;BME280;3848;42.016;23.098;2023-01-15T10:55:29;97347.63;;;17.23;50.02
7614;BME280;3848;42.016;23.098;2023-01-15T10:58:02;97342.97;;;17.08;48.92
7614;BME280;3848;42.016;23.098;2023-01-15T11:00:32;97319.88;;;17.06;48.26
7614;BME280;3848;42.016;23.098;2023-01-15T11:03:01;97328.53;;;17.31;49.39
7614;BME280;3848;42.016;23.098;2023-01-15T11:05:33;97319.72;;;17.38;48.12
7614;BME280;3848;42.016;23.098;2023-01-15T11:08:05;97310.09;;;17.19;47.80
7614;BME280;3848;42.016;23.098;2023-01-15T11:10:32;97317.91;;;17.16;48.14
7614;BME280;3848;42.016;23.098;2023-01-15T11:13:10;97306.31;;;17.30;48.57
7614;BME280;3848;42.016;23.098;2023-01-15T11:15:58;97300.34;;;17.02;48.09
7614;BME280;3848;42.016;23.098;2023-01-15T11:18:43;97303.19;;;17.21;48.33
7614;BME280;3848;42.016;23.098;2023-01-15T11:21:30;97295.00;;;17.36;47.31
7614;BME280;3848;42.016;23.098;2023-01-15T11:23:58;97290.53;;;17.67;48.94
7614;BME280;3848;42.016;23.098;2023-01-15T11:26:27;97284.25;;;17.76;48.26
7614;BME280;3848;42.016;23.098;2023-01-15T11:28:56;97283.31;;;17.79;47.25
7614;BME280;3848;42.016;23.098;2023-01-15T11:31:34;97266.94;;;17.81;48.30
7614;BME280;3848;42.016;23.098;2023-01-15T11:34:03;97277.53;;;17.97;47.89
7614;BME280;3848;42.016;23.098;2023-01-15T11:36:32;97274.97;;;17.97;48.01
7614;BME280;3848;42.016;23.098;2023-01-15T11:38:58;97268.09;;;17.73;47.75
7614;BME280;3848;42.016;23.098;2023-01-15T11:41:28;97266.22;;;16.98;47.71
7614;BME280;3848;42.016;23.098;2023-01-15T11:44:16;97272.81;;;16.50;49.56
7614;BME280;3848;42.016;23.098;2023-01-15T11:47:01;97251.47;;;15.89;50.33
7614;BME280;3848;42.016;23.098;2023-01-15T11:49:49;97260.53;;;15.69;52.20
7614;BME280;3848;42.016;23.098;2023-01-15T11:52:36;97254.47;;;15.38;54.55
7614;BME280;3848;42.016;23.098;2023-01-15T11:55:10;97249.78;;;15.19;54.25
7614;BME280;3848;42.016;23.098;2023-01-15T11:57:38;97260.16;;;15.15;55.12
7614;BME280;3848;42.016;23.098;2023-01-15T12:00:19;97235.91;;;14.94;56.25
7614;BME280;3848;42.016;23.098;2023-01-15T12:02:48;97246.53;;;14.79;56.37
7614;BME280;3848;42.016;23.098;2023-01-15T12:05:18;97251.19;;;14.61;57.23
7614;BME280;3848;42.016;23.098;2023-01-15T12:07:48;97245.00;;;14.30;57.42
7614;BME280;3848;42.016;23.098;2023-01-15T12:10:18;97240.44;;;14.04;59.15
7614;BME280;3848;42.016;23.098;2023-01-15T12:13:16;97226.75;;;13.63;60.71
7614;BME280;3848;42.016;23.098;2023-01-15T12:15:50;97229.28;;;13.63;62.74
7614;BME280;3848;42.016;23.098;2023-01-15T12:18:49;97231.34;;;13.45;62.45
7614;BME280;3848;42.016;23.098;2023-01-15T12:24:29;97226.69;;;13.17;64.25
7614;BME280;3848;42.016;23.098;2023-01-15T12:27:08;97220.97;;;13.01;65.19
7614;BME280;3848;42.016;23.098;2023-01-15T12:29:43;97217.97;;;12.76;66.14
7614;BME280;3848;42.016;23.098;2023-01-15T12:32:14;97222.28;;;12.73;70.49
7614;BME280;3848;42.016;23.098;2023-01-15T12:34:49;97218.31;;;12.54;71.10
7614;BME280;3848;42.016;23.098;2023-01-15T12:37:20;97215.97;;;12.38;73.16
7614;BME280;3848;42.016;23.098;2023-01-15T12:39:55;97207.63;;;12.29;73.53
7614;BME280;3848;42.016;23.098;2023-01-15T12:42:24;97211.09;;;12.23;73.82
7614;BME280;3848;42.016;23.098;2023-01-15T12:45:14;97206.19;;;12.09;70.53
7614;BME280;3848;42.016;23.098;2023-01-15T12:47:46;97202.06;;;11.99;72.37
7614;BME280;3848;42.016;23.098;2023-01-15T12:50:26;97205.44;;;12.01;72.31
7614;BME280;3848;42.016;23.098;2023-01-15T12:52:58;97199.50;;;11.99;71.92
7614;BME280;3848;42.016;23.098;2023-01-15T12:55:30;97208.03;;;11.98;72.53
7614;BME280;3848;42.016;23.098;2023-01-15T12:58:00;97201.34;;;11.91;72.03
7614;BME280;3848;42.016;23.098;2023-01-15T13:00:29;97203.06;;;11.89;72.64
7614;BME280;3848;42.016;23.098;2023-01-15T13:03:12;97191.19;;;11.85;73.50
7614;BME280;3848;42.016;23.098;2023-01-15T13:05:44;97196.34;;;11.80;74.49
7614;BME280;3848;42.016;23.098;2023-01-15T13:08:18;97190.44;;;11.78;75.77
7614;BME280;3848;42.016;23.098;2023-01-15T13:10:50;97193.00;;;11.74;75.82
7614;BME280;3848;42.016;23.098;2023-01-15T13:13:19;97188.81;;;11.70;77.30
7614;BME280;3848;42.016;23.098;2023-01-15T13:16:10;97177.81;;;11.69;77.82
7614;BME280;3848;42.016;23.098;2023-01-15T13:18:48;97176.97;;;11.66;77.97
7614;BME280;3848;42.016;23.098;2023-01-15T13:21:17;97180.38;;;11.68;75.80
7614;BME280;3848;42.016;23.098;2023-01-15T13:24:01;97171.91;;;11.63;76.86
7614;BME280;3848;42.016;23.098;2023-01-15T13:26:58;97173.63;;;11.62;75.99
7614;BME280;3848;42.016;23.098;2023-01-15T13:29:39;97168.59;;;11.57;75.58
7614;BME280;3848;42.016;23.098;2023-01-15T13:32:14;97173.63;;;11.62;75.54
7614;BME280;3848;42.016;23.098;2023-01-15T13:34:46;97171.13;;;11.59;78.67
7614;BME280;3848;42.016;23.098;2023-01-15T13:37:20;97165.25;;;11.52;77.11
7614;BME280;3848;42.016;23.098;2023-01-15T13:39:49;97171.09;;;11.60;75.93